sensor_id;sensor_type;location;lat;lon;timestamp;temperature;humidity
4050;DHT22;2039;50.894;6.888;2022-11-14T00:00:40;5.80;99.90
4050;DHT22;2039;50.894;6.888;2022-11-14T00:03:08;5.70;99.90
4050;DHT22;2039;50.894;6.888;2022-11-14T00:05:42;5.70;99.90
4050;DHT22;2039;50.894;6.888;2022-11-14T00:08:22;5.70;99.90
4050;DHT22;2039;50.894;6.888;2022-11-14T00:10:50;5.70;99.90
4050;DHT22;2039;50.894;6.888;2022-11-14T00:13:16;5.70;99.90
4050;DHT22;2039;50.894;6.888;2022-11-14T00:15:43;5.70;99.90
4050;DHT22;2039;50.894;6.888;2022-11-14T00:18:10;5.80;99.90
4050;DHT22;2039;50.894;6.888;2022-11-14T00:20:35;5.80;99.90
4050;DHT22;2039;50.894;6.888;2022-11-14T00:23:01;5.80;99.90
4050;DHT22;2039;50.894;6.888;2022-11-14T00:25:27;5.80;99.90
4050;DHT22;2039;50.894;6.888;2022-11-14T00:27:56;5.70;99.90
4050;DHT22;2039;50.894;6.888;2022-11-14T00:30:22;5.70;99.90
4050;DHT22;2039;50.894;6.888;2022-11-14T00:32:48;5.70;99.90
4050;DHT22;2039;50.894;6.888;2022-11-14T00:35:14;5.70;99.90
4050;DHT22;2039;50.894;6.888;2022-11-14T00:37:40;5.70;99.90
4050;DHT22;2039;50.894;6.888;2022-11-14T00:40:06;5.70;99.90
4050;DHT22;2039;50.894;6.888;2022-11-14T00:42:31;5.70;99.90
4050;DHT22;2039;50.894;6.888;2022-11-14T00:44:59;5.80;99.90
4050;DHT22;2039;50.894;6.888;2022-11-14T00:47:24;5.70;99.90
4050;DHT22;2039;50.894;6.888;2022-11-14T00:49:50;5.70;99.90
4050;DHT22;2039;50.894;6.888;2022-11-14T00:52:16;5.70;99.90
4050;DHT22;2039;50.894;6.888;2022-11-14T00:54:42;5.60;99.90
4050;DHT22;2039;50.894;6.888;2022-11-14T00:57:08;5.60;99.90
4050;DHT22;2039;50.894;6.888;2022-11-14T00:59:34;5.40;99.90
4050;DHT22;2039;50.894;6.888;2022-11-14T01:02:00;5.40;99.90
4050;DHT22;2039;50.894;6.888;2022-11-14T01:04:26;5.30;99.90
4050;DHT22;2039;50.894;6.888;2022-11-14T01:06:51;5.20;99.90
4050;DHT22;2039;50.894;6.888;2022-11-14T01:09:17;5.20;99.90
4050;DHT22;2039;50.894;6.888;2022-11-14T01:11:43;5.10;99.90
4050;DHT22;2039;50.894;6.888;2022-11-14T01:14:09;5.00;99.90
4050;DHT22;2039;50.894;6.888;2022-11-14T01:16:35;5.00;99.90
4050;DHT22;2039;50.894;6.888;2022-11-14T01:19:02;5.10;99.90
4050;DHT22;2039;50.894;6.888;2022-11-14T01:21:28;5.10;99.90
4050;DHT22;2039;50.894;6.888;2022-11-14T01:23:54;5.00;99.90
4050;DHT22;2039;50.894;6.888;2022-11-14T01:26:20;5.00;99.90
4050;DHT22;2039;50.894;6.888;2022-11-14T01:28:45;5.10;99.90
4050;DHT22;2039;50.894;6.888;2022-11-14T01:31:17;5.10;99.90
4050;DHT22;2039;50.894;6.888;2022-11-14T01:33:43;5.10;99.90
4050;DHT22;2039;50.894;6.888;2022-11-14T01:36:09;5.10;99.90
4050;DHT22;2039;50.894;6.888;2022-11-14T01:38:41;5.10;99.90
4050;DHT22;2039;50.894;6.888;2022-11-14T01:41:08;5.10;99.90
4050;DHT22;2039;50.894;6.888;2022-11-14T01:43:38;5.10;99.90
4050;DHT22;2039;50.894;6.888;2022-11-14T01:49:04;5.10;99.90
4050;DHT22;2039;50.894;6.888;2022-11-14T01:51:37;5.10;99.90
4050;DHT22;2039;50.894;6.888;2022-11-14T01:54:08;5.10;99.90
4050;DHT22;2039;50.894;6.888;2022-11-14T01:56:44;5.10;99.90
4050;DHT22;2039;50.894;6.888;2022-11-14T01:59:14;5.20;99.90
4050;DHT22;2039;50.894;6.888;2022-11-14T02:01:49;5.20;99.90
4050;DHT22;2039;50.894;6.888;2022-11-14T02:04:25;5.20;99.90
4050;DHT22;2039;50.894;6.888;2022-11-14T02:07:02;5.20;99.90
4050;DHT22;2039;50.894;6.888;2022-11-14T02:09:37;5.10;99.90
4050;DHT22;2039;50.894;6.888;2022-11-14T02:12:06;5.10;99.90
4050;DHT22;2039;50.894;6.888;2022-11-14T02:14:34;5.10;99.90
4050;DHT22;2039;50.894;6.888;2022-11-14T02:17:00;5.00;99.90
4050;DHT22;2039;50.894;6.888;2022-11-14T02:19:52;5.10;99.90
4050;DHT22;2039;50.894;6.888;2022-11-14T02:22:18;5.10;99.90
4050;DHT22;2039;50.894;6.888;2022-11-14T02:24:44;5.00;99.90
4050;DHT22;2039;50.894;6.888;2022-11-14T02:27:12;4.90;99.90
4050;DHT22;2039;50.894;6.888;2022-11-14T02:29:38;5.00;99.90
4050;DHT22;2039;50.894;6.888;2022-11-14T02:32:04;4.90;99.90
4050;DHT22;2039;50.894;6.888;2022-11-14T02:34:31;4.90;99.90
4050;DHT22;2039;50.894;6.888;2022-11-14T02:36:57;4.90;99.90
4050;DHT22;2039;50.894;6.888;2022-11-14T02:39:23;4.90;99.90
4050;DHT22;2039;50.894;6.888;2022-11-14T02:41:50;5.00;99.90
4050;DHT22;2039;50.894;6.888;2022-11-14T02:44:16;5.00;99.90
4050;DHT22;2039;50.894;6.888;2022-11-14T02:46:42;5.00;99.90
4050;DHT22;2039;50.894;6.888;2022-11-14T02:49:08;4.90;99.90
4050;DHT22;2039;50.894;6.888;2022-11-14T02:51:34;4.90;99.90
4050;DHT22;2039;50.894;6.888;2022-11-14T02:54:00;4.90;99.90
4050;DHT22;2039;50.894;6.888;2022-11-14T02:56:26;4.90;99.90
4050;DHT22;2039;50.894;6.888;2022-11-14T02:58:51;4.90;99.90
4050;DHT22;2039;50.894;6.888;2022-11-14T03:01:17;4.90;99.90
4050;DHT22;2039;50.894;6.888;2022-11-14T03:03:43;4.90;99.90
4050;DHT22;2039;50.894;6.888;2022-11-14T03:06:09;4.80;99.90
4050;DHT22;2039;50.894;6.888;2022-11-14T03:08:35;4.80;99.90
4050;DHT22;2039;50.894;6.888;2022-11-14T03:11:05;4.80;99.90
4050;DHT22;2039;50.894;6.888;2022-11-14T03:13:32;4.80;99.90
4050;DHT22;2039;50.894;6.888;2022-11-14T03:16:06;4.80;99.90
4050;DHT22;2039;50.894;6.888;2022-11-14T03:18:32;4.80;99.90
4050;DHT22;2039;50.894;6.888;2022-11-14T03:21:20;4.70;99.90
4050;DHT22;2039;50.894;6.888;2022-11-14T03:23:46;4.70;99.90
4050;DHT22;2039;50.894;6.888;2022-11-14T03:26:13;4.70;99.90
4050;DHT22;2039;50.894;6.888;2022-11-14T03:28:40;4.70;99.90
4050;DHT22;2039;50.894;6.888;2022-11-14T03:31:08;4.60;99.90
4050;DHT22;2039;50.894;6.888;2022-11-14T03:33:35;4.60;99.90
4050;DHT22;2039;50.894;6.888;2022-11-14T03:36:00;4.60;99.90
4050;DHT22;2039;50.894;6.888;2022-11-14T03:38:26;4.60;99.90
4050;DHT22;2039;50.894;6.888;2022-11-14T03:40:52;4.50;99.90
4050;DHT22;2039;50.894;6.888;2022-11-14T03:43:19;4.60;99.90
4050;DHT22;2039;50.894;6.888;2022-11-14T03:45:46;4.50;99.90
4050;DHT22;2039;50.894;6.888;2022-11-14T03:48:12;4.50;99.90
4050;DHT22;2039;50.894;6.888;2022-11-14T03:50:38;4.50;99.90
4050;DHT22;2039;50.894;6.888;2022-11-14T03:53:04;4.50;99.90
4050;DHT22;2039;50.894;6.888;2022-11-14T03:55:31;4.50;99.90
4050;DHT22;2039;50.894;6.888;2022-11-14T03:57:57;4.50;99.90
4050;DHT22;2039;50.894;6.888;2022-11-14T04:00:23;4.40;99.90
4050;DHT22;2039;50.894;6.888;2022-11-14T04:02:48;4.40;99.90
4050;DHT22;2039;50.894;6.888;2022-11-14T04:05:14;4.40;99.90
4050;DHT22;2039;50.894;6.888;2022-11-14T04:07:40;4.40;99.90
4050;DHT22;2039;50.894;6.888;2022-11-14T04:10:06;4.40;99.90
4050;DHT22;2039;50.894;6.888;2022-11-14T04:12:32;4.30;99.90
4050;DHT22;2039;50.894;6.888;2022-11-14T04:14:58;4.30;99.90
4050;DHT22;2039;50.894;6.888;2022-11-14T04:17:24;4.30;99.90
4050;DHT22;2039;50.894;6.888;2022-11-14T04:19:49;4.30;99.90
4050;DHT22;2039;50.894;6.888;2022-11-14T04:22:15;4.30;99.90
4050;DHT22;2039;50.894;6.888;2022-11-14T04:24:41;4.30;99.90
4050;DHT22;2039;50.894;6.888;2022-11-14T04:27:07;4.30;99.90
4050;DHT22;2039;50.894;6.888;2022-11-14T04:29:32;4.30;99.90
4050;DHT22;2039;50.894;6.888;2022-11-14T04:31:58;4.30;99.90
4050;DHT22;2039;50.894;6.888;2022-11-14T04:34:24;4.30;99.90
4050;DHT22;2039;50.894;6.888;2022-11-14T04:36:50;4.30;99.90
4050;DHT22;2039;50.894;6.888;2022-11-14T04:39:16;4.30;99.90
4050;DHT22;2039;50.894;6.888;2022-11-14T04:41:42;4.30;99.90
4050;DHT22;2039;50.894;6.888;2022-11-14T04:44:08;4.30;99.90
4050;DHT22;2039;50.894;6.888;2022-11-14T04:46:34;4.30;99.90
4050;DHT22;2039;50.894;6.888;2022-11-14T04:49:01;4.20;99.90
4050;DHT22;2039;50.894;6.888;2022-11-14T04:51:27;4.20;99.90
4050;DHT22;2039;50.894;6.888;2022-11-14T04:53:53;4.20;99.90
4050;DHT22;2039;50.894;6.888;2022-11-14T04:56:19;4.20;99.90
4050;DHT22;2039;50.894;6.888;2022-11-14T04:58:48;4.20;99.90
4050;DHT22;2039;50.894;6.888;2022-11-14T05:01:17;4.20;99.90
4050;DHT22;2039;50.894;6.888;2022-11-14T05:03:42;4.10;99.90
4050;DHT22;2039;50.894;6.888;2022-11-14T05:06:09;4.10;99.90
4050;DHT22;2039;50.894;6.888;2022-11-14T05:08:35;4.10;99.90
4050;DHT22;2039;50.894;6.888;2022-11-14T05:11:01;4.10;99.90
4050;DHT22;2039;50.894;6.888;2022-11-14T05:13:26;4.10;99.90
4050;DHT22;2039;50.894;6.888;2022-11-14T05:15:52;4.10;99.90
4050;DHT22;2039;50.894;6.888;2022-11-14T05:18:18;4.10;99.90
4050;DHT22;2039;50.894;6.888;2022-11-14T05:20:44;4.10;99.90
4050;DHT22;2039;50.894;6.888;2022-11-14T05:23:18;4.10;99.90
4050;DHT22;2039;50.894;6.888;2022-11-14T05:25:45;4.20;99.90
4050;DHT22;2039;50.894;6.888;2022-11-14T05:28:11;4.10;99.90
4050;DHT22;2039;50.894;6.888;2022-11-14T05:30:37;4.10;99.90
4050;DHT22;2039;50.894;6.888;2022-11-14T05:33:02;4.10;99.90
4050;DHT22;2039;50.894;6.888;2022-11-14T05:35:29;4.20;99.90
4050;DHT22;2039;50.894;6.888;2022-11-14T05:37:55;4.20;99.90
4050;DHT22;2039;50.894;6.888;2022-11-14T05:40:21;4.10;99.90
4050;DHT22;2039;50.894;6.888;2022-11-14T05:42:47;4.10;99.90
4050;DHT22;2039;50.894;6.888;2022-11-14T05:45:12;4.10;99.90
4050;DHT22;2039;50.894;6.888;2022-11-14T05:47:38;4.10;99.90
4050;DHT22;2039;50.894;6.888;2022-11-14T05:50:04;4.10;99.90
4050;DHT22;2039;50.894;6.888;2022-11-14T05:52:30;4.10;99.90
4050;DHT22;2039;50.894;6.888;2022-11-14T05:54:55;4.10;99.90
4050;DHT22;2039;50.894;6.888;2022-11-14T05:57:21;4.10;99.90
4050;DHT22;2039;50.894;6.888;2022-11-14T05:59:47;4.00;99.90
4050;DHT22;2039;50.894;6.888;2022-11-14T06:02:12;4.00;99.90
4050;DHT22;2039;50.894;6.888;2022-11-14T06:04:41;4.00;99.90
4050;DHT22;2039;50.894;6.888;2022-11-14T06:07:07;4.00;99.90
4050;DHT22;2039;50.894;6.888;2022-11-14T06:09:32;4.00;99.90
4050;DHT22;2039;50.894;6.888;2022-11-14T06:11:58;4.00;99.90
4050;DHT22;2039;50.894;6.888;2022-11-14T06:14:24;4.00;99.90
4050;DHT22;2039;50.894;6.888;2022-11-14T06:16:49;4.00;99.90
4050;DHT22;2039;50.894;6.888;2022-11-14T06:19:15;4.00;99.90
4050;DHT22;2039;50.894;6.888;2022-11-14T06:21:41;4.00;99.90
4050;DHT22;2039;50.894;6.888;2022-11-14T06:24:06;3.90;99.90
4050;DHT22;2039;50.894;6.888;2022-11-14T06:26:32;3.90;99.90
4050;DHT22;2039;50.894;6.888;2022-11-14T06:28:59;3.90;99.90
4050;DHT22;2039;50.894;6.888;2022-11-14T06:31:25;3.90;99.90
4050;DHT22;2039;50.894;6.888;2022-11-14T06:33:51;3.90;99.90
4050;DHT22;2039;50.894;6.888;2022-11-14T06:36:17;3.90;99.90
4050;DHT22;2039;50.894;6.888;2022-11-14T06:38:45;3.90;99.90
4050;DHT22;2039;50.894;6.888;2022-11-14T06:41:13;3.90;99.90
4050;DHT22;2039;50.894;6.888;2022-11-14T06:43:41;3.90;99.90
4050;DHT22;2039;50.894;6.888;2022-11-14T06:46:10;4.00;99.90
4050;DHT22;2039;50.894;6.888;2022-11-14T06:48:36;3.90;99.90
4050;DHT22;2039;50.894;6.888;2022-11-14T06:51:03;4.00;99.90
4050;DHT22;2039;50.894;6.888;2022-11-14T06:53:30;4.00;99.90
4050;DHT22;2039;50.894;6.888;2022-11-14T06:58:31;4.20;99.90
4050;DHT22;2039;50.894;6.888;2022-11-14T07:01:03;4.30;99.90
4050;DHT22;2039;50.894;6.888;2022-11-14T07:03:29;4.30;99.90
4050;DHT22;2039;50.894;6.888;2022-11-14T07:05:59;4.30;99.90
4050;DHT22;2039;50.894;6.888;2022-11-14T07:08:25;4.50;99.90
4050;DHT22;2039;50.894;6.888;2022-11-14T07:10:51;4.60;99.90
4050;DHT22;2039;50.894;6.888;2022-11-14T07:13:17;4.60;99.90
4050;DHT22;2039;50.894;6.888;2022-11-14T07:15:53;4.70;99.90
4050;DHT22;2039;50.894;6.888;2022-11-14T07:18:19;4.70;99.90
4050;DHT22;2039;50.894;6.888;2022-11-14T07:20:45;4.80;99.90
4050;DHT22;2039;50.894;6.888;2022-11-14T07:23:12;4.80;99.90
4050;DHT22;2039;50.894;6.888;2022-11-14T07:25:38;4.90;99.90
4050;DHT22;2039;50.894;6.888;2022-11-14T07:28:04;5.00;99.90
4050;DHT22;2039;50.894;6.888;2022-11-14T07:30:29;5.10;99.90
4050;DHT22;2039;50.894;6.888;2022-11-14T07:32:56;5.20;99.90
4050;DHT22;2039;50.894;6.888;2022-11-14T07:35:22;5.20;99.90
4050;DHT22;2039;50.894;6.888;2022-11-14T07:37:48;5.30;99.90
4050;DHT22;2039;50.894;6.888;2022-11-14T07:40:14;5.40;99.90
4050;DHT22;2039;50.894;6.888;2022-11-14T07:42:40;5.40;99.90
4050;DHT22;2039;50.894;6.888;2022-11-14T07:45:09;5.40;99.90
4050;DHT22;2039;50.894;6.888;2022-11-14T07:47:35;5.50;99.90
4050;DHT22;2039;50.894;6.888;2022-11-14T07:50:01;5.50;99.90
4050;DHT22;2039;50.894;6.888;2022-11-14T07:52:27;5.60;99.90
4050;DHT22;2039;50.894;6.888;2022-11-14T07:54:55;5.60;99.90
4050;DHT22;2039;50.894;6.888;2022-11-14T07:57:21;5.70;99.90
4050;DHT22;2039;50.894;6.888;2022-11-14T07:59:47;5.70;99.90
4050;DHT22;2039;50.894;6.888;2022-11-14T08:02:13;5.80;99.90
4050;DHT22;2039;50.894;6.888;2022-11-14T08:04:42;5.80;99.90
4050;DHT22;2039;50.894;6.888;2022-11-14T08:07:08;5.90;99.90
4050;DHT22;2039;50.894;6.888;2022-11-14T08:09:34;6.00;99.90
4050;DHT22;2039;50.894;6.888;2022-11-14T08:12:00;6.00;99.90
4050;DHT22;2039;50.894;6.888;2022-11-14T08:14:26;6.10;99.90
4050;DHT22;2039;50.894;6.888;2022-11-14T08:16:51;6.10;99.90
4050;DHT22;2039;50.894;6.888;2022-11-14T08:19:17;6.20;99.90
4050;DHT22;2039;50.894;6.888;2022-11-14T08:21:43;6.20;99.90
4050;DHT22;2039;50.894;6.888;2022-11-14T08:24:09;6.20;99.90
4050;DHT22;2039;50.894;6.888;2022-11-14T08:26:35;6.30;99.90
4050;DHT22;2039;50.894;6.888;2022-11-14T08:29:01;6.30;99.90
4050;DHT22;2039;50.894;6.888;2022-11-14T08:31:27;6.40;99.90
4050;DHT22;2039;50.894;6.888;2022-11-14T08:33:53;6.40;99.90
4050;DHT22;2039;50.894;6.888;2022-11-14T08:36:21;6.40;99.90
4050;DHT22;2039;50.894;6.888;2022-11-14T08:38:47;6.50;99.90
4050;DHT22;2039;50.894;6.888;2022-11-14T08:41:13;6.50;99.90
4050;DHT22;2039;50.894;6.888;2022-11-14T08:43:39;6.50;99.90
4050;DHT22;2039;50.894;6.888;2022-11-14T08:46:04;6.50;99.90
4050;DHT22;2039;50.894;6.888;2022-11-14T08:48:31;6.50;99.90
4050;DHT22;2039;50.894;6.888;2022-11-14T08:51:01;6.60;99.90
4050;DHT22;2039;50.894;6.888;2022-11-14T08:53:27;6.70;99.90
4050;DHT22;2039;50.894;6.888;2022-11-14T08:55:52;6.60;99.90
4050;DHT22;2039;50.894;6.888;2022-11-14T08:58:18;6.70;99.90
4050;DHT22;2039;50.894;6.888;2022-11-14T09:00:43;6.80;99.90
4050;DHT22;2039;50.894;6.888;2022-11-14T09:03:13;6.80;99.90
4050;DHT22;2039;50.894;6.888;2022-11-14T09:05:41;6.80;99.90
4050;DHT22;2039;50.894;6.888;2022-11-14T09:08:10;6.90;99.90
4050;DHT22;2039;50.894;6.888;2022-11-14T09:10:36;6.90;99.90
4050;DHT22;2039;50.894;6.888;2022-11-14T09:13:02;6.90;99.90
4050;DHT22;2039;50.894;6.888;2022-11-14T09:15:28;6.90;99.90
4050;DHT22;2039;50.894;6.888;2022-11-14T09:17:55;6.90;99.90
4050;DHT22;2039;50.894;6.888;2022-11-14T09:20:22;7.00;99.90
4050;DHT22;2039;50.894;6.888;2022-11-14T09:22:48;7.00;99.90
4050;DHT22;2039;50.894;6.888;2022-11-14T09:25:21;7.10;99.90
4050;DHT22;2039;50.894;6.888;2022-11-14T09:27:47;7.10;99.90
4050;DHT22;2039;50.894;6.888;2022-11-14T09:30:13;7.10;99.90
4050;DHT22;2039;50.894;6.888;2022-11-14T09:32:39;7.20;99.90
4050;DHT22;2039;50.894;6.888;2022-11-14T09:35:05;7.10;99.90
4050;DHT22;2039;50.894;6.888;2022-11-14T09:37:33;7.10;99.90
4050;DHT22;2039;50.894;6.888;2022-11-14T09:39:59;7.20;99.90
4050;DHT22;2039;50.894;6.888;2022-11-14T09:42:39;7.20;99.90
4050;DHT22;2039;50.894;6.888;2022-11-14T09:45:14;7.20;99.90
4050;DHT22;2039;50.894;6.888;2022-11-14T09:47:47;7.30;99.90
4050;DHT22;2039;50.894;6.888;2022-11-14T09:53:53;7.40;99.90
4050;DHT22;2039;50.894;6.888;2022-11-14T09:56:26;7.50;99.90
4050;DHT22;2039;50.894;6.888;2022-11-14T09:58:53;7.50;99.90
4050;DHT22;2039;50.894;6.888;2022-11-14T10:01:40;7.60;99.90
4050;DHT22;2039;50.894;6.888;2022-11-14T10:06:52;7.70;99.90
4050;DHT22;2039;50.894;6.888;2022-11-14T10:12:29;7.90;99.90
4050;DHT22;2039;50.894;6.888;2022-11-14T10:15:27;7.80;99.90
4050;DHT22;2039;50.894;6.888;2022-11-14T10:18:09;7.80;99.90
4050;DHT22;2039;50.894;6.888;2022-11-14T10:23:14;7.90;99.90
4050;DHT22;2039;50.894;6.888;2022-11-14T10:31:47;8.10;99.90
4050;DHT22;2039;50.894;6.888;2022-11-14T10:37:02;8.10;99.90
4050;DHT22;2039;50.894;6.888;2022-11-14T10:39:39;8.10;99.90
4050;DHT22;2039;50.894;6.888;2022-11-14T10:42:24;8.20;99.90
4050;DHT22;2039;50.894;6.888;2022-11-14T10:47:24;8.20;99.90
4050;DHT22;2039;50.894;6.888;2022-11-14T10:49:53;8.20;99.90
4050;DHT22;2039;50.894;6.888;2022-11-14T10:52:26;8.30;99.90
4050;DHT22;2039;50.894;6.888;2022-11-14T10:54:58;8.30;99.90
4050;DHT22;2039;50.894;6.888;2022-11-14T10:57:28;8.40;99.90
4050;DHT22;2039;50.894;6.888;2022-11-14T10:59:54;8.50;99.90
4050;DHT22;2039;50.894;6.888;2022-11-14T11:02:20;8.60;99.90
4050;DHT22;2039;50.894;6.888;2022-11-14T11:04:49;8.60;99.90
4050;DHT22;2039;50.894;6.888;2022-11-14T11:07:27;8.70;99.90
4050;DHT22;2039;50.894;6.888;2022-11-14T11:10:21;8.60;99.90
4050;DHT22;2039;50.894;6.888;2022-11-14T11:13:11;8.70;99.90
4050;DHT22;2039;50.894;6.888;2022-11-14T11:15:41;8.80;99.90
4050;DHT22;2039;50.894;6.888;2022-11-14T11:18:26;8.90;99.90
4050;DHT22;2039;50.894;6.888;2022-11-14T11:21:09;8.80;99.90
4050;DHT22;2039;50.894;6.888;2022-11-14T11:23:52;8.80;99.90
4050;DHT22;2039;50.894;6.888;2022-11-14T11:26:27;8.70;99.90
4050;DHT22;2039;50.894;6.888;2022-11-14T11:29:19;8.80;99.90
4050;DHT22;2039;50.894;6.888;2022-11-14T11:31:55;8.90;99.90
4050;DHT22;2039;50.894;6.888;2022-11-14T11:34:32;9.00;99.90
4050;DHT22;2039;50.894;6.888;2022-11-14T11:37:11;9.00;99.90
4050;DHT22;2039;50.894;6.888;2022-11-14T11:39:46;9.00;99.90
4050;DHT22;2039;50.894;6.888;2022-11-14T11:42:25;8.90;99.90
4050;DHT22;2039;50.894;6.888;2022-11-14T11:44:56;9.00;99.90
4050;DHT22;2039;50.894;6.888;2022-11-14T11:47:24;8.90;99.90
4050;DHT22;2039;50.894;6.888;2022-11-14T11:49:53;8.90;99.90
4050;DHT22;2039;50.894;6.888;2022-11-14T11:52:26;8.90;99.90
4050;DHT22;2039;50.894;6.888;2022-11-14T11:57:50;8.90;99.90
4050;DHT22;2039;50.894;6.888;2022-11-14T12:00:21;8.90;99.90
4050;DHT22;2039;50.894;6.888;2022-11-14T12:02:49;9.00;99.90
4050;DHT22;2039;50.894;6.888;2022-11-14T12:08:04;8.90;99.90
4050;DHT22;2039;50.894;6.888;2022-11-14T12:10:36;8.90;99.90
4050;DHT22;2039;50.894;6.888;2022-11-14T12:30:31;9.20;99.90
4050;DHT22;2039;50.894;6.888;2022-11-14T12:35:26;9.20;99.90
4050;DHT22;2039;50.894;6.888;2022-11-14T12:37:55;9.10;99.90
4050;DHT22;2039;50.894;6.888;2022-11-14T12:40:28;9.10;99.90
4050;DHT22;2039;50.894;6.888;2022-11-14T12:42:55;9.00;99.90
4050;DHT22;2039;50.894;6.888;2022-11-14T12:48:22;8.90;99.90
4050;DHT22;2039;50.894;6.888;2022-11-14T12:50:54;8.80;99.90
4050;DHT22;2039;50.894;6.888;2022-11-14T13:12:34;8.70;99.90
4050;DHT22;2039;50.894;6.888;2022-11-14T13:15:33;8.60;99.90
4050;DHT22;2039;50.894;6.888;2022-11-14T13:18:22;8.60;99.90
4050;DHT22;2039;50.894;6.888;2022-11-14T13:24:18;8.60;99.90
4050;DHT22;2039;50.894;6.888;2022-11-14T13:26:48;8.60;99.90
4050;DHT22;2039;50.894;6.888;2022-11-14T13:32:11;8.70;99.90
4050;DHT22;2039;50.894;6.888;2022-11-14T13:34:42;8.70;99.90
4050;DHT22;2039;50.894;6.888;2022-11-14T13:48:21;8.80;99.90
4050;DHT22;2039;50.894;6.888;2022-11-14T13:51:00;8.90;99.90
4050;DHT22;2039;50.894;6.888;2022-11-14T13:53:29;8.80;99.90
4050;DHT22;2039;50.894;6.888;2022-11-14T13:56:09;8.80;99.90
4050;DHT22;2039;50.894;6.888;2022-11-14T14:01:58;8.80;99.90
4050;DHT22;2039;50.894;6.888;2022-11-14T14:04:50;8.80;99.90
4050;DHT22;2039;50.894;6.888;2022-11-14T14:10:25;8.90;99.90
4050;DHT22;2039;50.894;6.888;2022-11-14T14:13:01;8.90;99.90
4050;DHT22;2039;50.894;6.888;2022-11-14T14:16:10;8.90;99.90
4050;DHT22;2039;50.894;6.888;2022-11-14T14:19:20;8.90;99.90
4050;DHT22;2039;50.894;6.888;2022-11-14T14:22:14;8.90;99.90
4050;DHT22;2039;50.894;6.888;2022-11-14T14:25:17;8.80;99.90
4050;DHT22;2039;50.894;6.888;2022-11-14T14:28:10;8.90;99.90
4050;DHT22;2039;50.894;6.888;2022-11-14T14:30:40;8.90;99.90
4050;DHT22;2039;50.894;6.888;2022-11-14T14:35:34;8.90;99.90
4050;DHT22;2039;50.894;6.888;2022-11-14T14:38:00;8.80;99.90
4050;DHT22;2039;50.894;6.888;2022-11-14T14:40:27;8.90;99.90
4050;DHT22;2039;50.894;6.888;2022-11-14T14:42:54;8.90;99.90
4050;DHT22;2039;50.894;6.888;2022-11-14T14:45:26;8.90;99.90
4050;DHT22;2039;50.894;6.888;2022-11-14T14:48:04;8.90;99.90
4050;DHT22;2039;50.894;6.888;2022-11-14T14:50:40;8.90;99.90
4050;DHT22;2039;50.894;6.888;2022-11-14T14:53:17;8.90;99.90
4050;DHT22;2039;50.894;6.888;2022-11-14T14:55:54;8.90;99.90
4050;DHT22;2039;50.894;6.888;2022-11-14T15:01:12;8.90;99.90
4050;DHT22;2039;50.894;6.888;2022-11-14T15:03:57;8.90;99.90
4050;DHT22;2039;50.894;6.888;2022-11-14T15:06:32;8.90;99.90
4050;DHT22;2039;50.894;6.888;2022-11-14T15:09:01;8.90;99.90
4050;DHT22;2039;50.894;6.888;2022-11-14T15:11:28;8.90;99.90
4050;DHT22;2039;50.894;6.888;2022-11-14T15:13:56;8.90;99.90
4050;DHT22;2039;50.894;6.888;2022-11-14T15:16:24;8.90;99.90
4050;DHT22;2039;50.894;6.888;2022-11-14T15:18:52;8.90;99.90
4050;DHT22;2039;50.894;6.888;2022-11-14T15:21:28;8.80;99.90
4050;DHT22;2039;50.894;6.888;2022-11-14T15:24:16;8.90;99.90
4050;DHT22;2039;50.894;6.888;2022-11-14T15:26:43;8.80;99.90
4050;DHT22;2039;50.894;6.888;2022-11-14T15:29:21;8.80;99.90
4050;DHT22;2039;50.894;6.888;2022-11-14T15:34:37;8.80;99.90
4050;DHT22;2039;50.894;6.888;2022-11-14T15:37:19;8.80;99.90
4050;DHT22;2039;50.894;6.888;2022-11-14T15:40:13;8.80;99.90
4050;DHT22;2039;50.894;6.888;2022-11-14T15:42:42;8.80;99.90
4050;DHT22;2039;50.894;6.888;2022-11-14T15:47:59;8.80;99.90
4050;DHT22;2039;50.894;6.888;2022-11-14T15:50:30;8.80;99.90
4050;DHT22;2039;50.894;6.888;2022-11-14T15:53:00;8.80;99.90
4050;DHT22;2039;50.894;6.888;2022-11-14T15:55:27;8.80;99.90
4050;DHT22;2039;50.894;6.888;2022-11-14T15:57:53;8.90;99.90
4050;DHT22;2039;50.894;6.888;2022-11-14T16:00:19;8.80;99.90
4050;DHT22;2039;50.894;6.888;2022-11-14T16:02:51;8.80;99.90
4050;DHT22;2039;50.894;6.888;2022-11-14T16:05:25;8.80;99.90
4050;DHT22;2039;50.894;6.888;2022-11-14T16:07:52;8.80;99.90
4050;DHT22;2039;50.894;6.888;2022-11-14T16:10:22;8.90;99.90
4050;DHT22;2039;50.894;6.888;2022-11-14T16:12:49;8.90;99.90
4050;DHT22;2039;50.894;6.888;2022-11-14T16:15:19;8.80;99.90
4050;DHT22;2039;50.894;6.888;2022-11-14T16:17:47;8.80;99.90
4050;DHT22;2039;50.894;6.888;2022-11-14T16:20:19;8.80;99.90
4050;DHT22;2039;50.894;6.888;2022-11-14T16:22:47;8.80;99.90
4050;DHT22;2039;50.894;6.888;2022-11-14T16:25:20;8.90;99.90
4050;DHT22;2039;50.894;6.888;2022-11-14T16:27:47;8.90;99.90
4050;DHT22;2039;50.894;6.888;2022-11-14T16:30:14;8.90;99.90
4050;DHT22;2039;50.894;6.888;2022-11-14T16:32:42;8.90;99.90
4050;DHT22;2039;50.894;6.888;2022-11-14T16:35:25;8.90;99.90
4050;DHT22;2039;50.894;6.888;2022-11-14T16:37:51;8.80;99.90
4050;DHT22;2039;50.894;6.888;2022-11-14T16:40:21;8.70;99.90
4050;DHT22;2039;50.894;6.888;2022-11-14T16:42:57;8.80;99.90
4050;DHT22;2039;50.894;6.888;2022-11-14T16:45:24;8.80;99.90
4050;DHT22;2039;50.894;6.888;2022-11-14T16:47:51;8.80;99.90
4050;DHT22;2039;50.894;6.888;2022-11-14T16:50:18;8.80;99.90
4050;DHT22;2039;50.894;6.888;2022-11-14T16:52:44;8.80;99.90
4050;DHT22;2039;50.894;6.888;2022-11-14T16:55:16;8.80;99.90
4050;DHT22;2039;50.894;6.888;2022-11-14T16:57:42;8.90;99.90
4050;DHT22;2039;50.894;6.888;2022-11-14T17:00:10;8.90;99.90
4050;DHT22;2039;50.894;6.888;2022-11-14T17:02:36;8.90;99.90
4050;DHT22;2039;50.894;6.888;2022-11-14T17:05:04;8.90;99.90
4050;DHT22;2039;50.894;6.888;2022-11-14T17:07:30;8.80;99.90
4050;DHT22;2039;50.894;6.888;2022-11-14T17:10:00;8.80;99.90
4050;DHT22;2039;50.894;6.888;2022-11-14T17:12:27;8.80;99.90
4050;DHT22;2039;50.894;6.888;2022-11-14T17:14:53;8.80;99.90
4050;DHT22;2039;50.894;6.888;2022-11-14T17:17:22;8.80;99.90
4050;DHT22;2039;50.894;6.888;2022-11-14T17:19:48;8.80;99.90
4050;DHT22;2039;50.894;6.888;2022-11-14T17:22:19;8.80;99.90
4050;DHT22;2039;50.894;6.888;2022-11-14T17:24:48;8.80;99.90
4050;DHT22;2039;50.894;6.888;2022-11-14T17:27:14;8.80;99.90
4050;DHT22;2039;50.894;6.888;2022-11-14T17:29:40;8.70;99.90
4050;DHT22;2039;50.894;6.888;2022-11-14T17:32:05;8.80;99.90
4050;DHT22;2039;50.894;6.888;2022-11-14T17:34:34;8.80;99.90
4050;DHT22;2039;50.894;6.888;2022-11-14T17:37:02;8.80;99.90
4050;DHT22;2039;50.894;6.888;2022-11-14T17:39:30;8.80;99.90
4050;DHT22;2039;50.894;6.888;2022-11-14T17:42:02;8.70;99.90
4050;DHT22;2039;50.894;6.888;2022-11-14T17:44:30;8.70;99.90
4050;DHT22;2039;50.894;6.888;2022-11-14T17:46:56;8.70;99.90
4050;DHT22;2039;50.894;6.888;2022-11-14T17:49:22;8.70;99.90
4050;DHT22;2039;50.894;6.888;2022-11-14T17:51:50;8.70;99.90
4050;DHT22;2039;50.894;6.888;2022-11-14T17:54:16;8.60;99.90
4050;DHT22;2039;50.894;6.888;2022-11-14T17:56:42;8.60;99.90
4050;DHT22;2039;50.894;6.888;2022-11-14T17:59:08;8.60;99.90
4050;DHT22;2039;50.894;6.888;2022-11-14T18:01:34;8.60;99.90
4050;DHT22;2039;50.894;6.888;2022-11-14T18:04:00;8.60;99.90
4050;DHT22;2039;50.894;6.888;2022-11-14T18:06:25;8.60;99.90
4050;DHT22;2039;50.894;6.888;2022-11-14T18:08:51;8.50;99.90
4050;DHT22;2039;50.894;6.888;2022-11-14T18:11:17;8.60;99.90
4050;DHT22;2039;50.894;6.888;2022-11-14T18:13:44;8.50;99.90
4050;DHT22;2039;50.894;6.888;2022-11-14T18:18:37;8.50;99.90
4050;DHT22;2039;50.894;6.888;2022-11-14T18:21:17;8.50;99.90
4050;DHT22;2039;50.894;6.888;2022-11-14T18:23:49;8.50;99.90